Makkum

NL-0092 · Friesland, 荷兰

使用的METAR站距离机场30 km。
罗盘
风向 的 风向 的 风向 到 风向 150° 直升机
风: 10 kt, 3 beaufort
0 ft 1.000 2.000 3.000 4.000 5.000
Cloud Cloud
FEW 1.900
Cloud Cloud Cloud Cloud
SCT 3.100
Cloud Cloud Cloud Cloud Cloud Cloud
BKN 3.600
METAR EHLW 240025Z AUTO 15010KT 130V190 9999 FEW019 SCT031 BKN036 05/04 Q0992 BLU

METAR Makkum - NL-0092

Makkum是,荷兰中的直升机场。 该机场位于纬度53,05417和经度5,39917。 这个机场没有ICAO代码,我们使用NL-0092作为参考。 机场在Amsterdam FIR中。

该航空气象观测是针对Leeuwarden Air Base在2024年2月24日 01:25, 当地时间进行的。

机场观察

风向为150°,速度为10 kt。 风向在130°和190°之间变化。

可见度为10 km 或者更多。

有几云在1.900 ft的高度, 疏云,零星散落的云朵在3.100 ft的高度 和 碎云在3.600 ft的高度。 破损或更高的上限为3.600 ft。

温度为5 °C,阵风为-1 °C。 露点为4 °C,相对湿度为93%。 海平面上的气压为992 hPa (QNH)。

白天

今天,太阳从07:37升起,在18:05降落。 这适用于Makkum,世界夏令时可能有所不同。 当地时间与世界标准时间之间的时差为+1 小时。 当前,没有夏令时有效。

公司介绍

我们没有关于这个机场的公司信息。

体会

到Vliegles.nl去找飞行课程,跳伞和其他飞行体验。 浏览页面,了解Makkum附近所有可用的活动。 你也可以使用搜索功能来寻找你所在地附近的特定飞行课程、跳伞或其他飞行体验。

乌云

1.900 ft FEW 几云
3.100 ft SCT 疏云,零星散落的云朵
3.600 ft BKN 碎云

温度 & 天气

温度 5 °C
露点 4 °C
相对湿度 93%
风寒 -1 °C
Kp-index 0 (0-9)

白天

日出
07:36 (5:58)
中午
12:50
日落
18:04

小工具

你想在你的网站上有一个关于Makkum的当前航空天气(METAR)的小部件吗?

显示HTML代码
?>